sensor_id;sensor_type;location;lat;lon;timestamp;temperature;humidity
61351;DHT22;47119;49.130;9.218;2023-02-26T16:03:42;8.25;47.62
61351;DHT22;47119;49.130;9.218;2023-02-26T16:06:11;8.19;47.33
61351;DHT22;47119;49.130;9.218;2023-02-26T16:08:41;8.34;48.36
61351;DHT22;47119;49.130;9.218;2023-02-26T16:11:09;8.44;47.75
61351;DHT22;47119;49.130;9.218;2023-02-26T16:13:44;8.37;47.53
61351;DHT22;47119;49.130;9.218;2023-02-26T16:16:42;8.26;48.12
61351;DHT22;47119;49.130;9.218;2023-02-26T16:19:15;8.26;47.91
61351;DHT22;47119;49.130;9.218;2023-02-26T16:21:45;8.33;47.70
61351;DHT22;47119;49.130;9.218;2023-02-26T16:24:16;8.26;47.62
61351;DHT22;47119;49.130;9.218;2023-02-26T16:26:50;8.22;47.21
61351;DHT22;47119;49.130;9.218;2023-02-26T16:29:27;8.06;46.97
61351;DHT22;47119;49.130;9.218;2023-02-26T16:31:59;8.05;46.69
61351;DHT22;47119;49.130;9.218;2023-02-26T16:34:34;8.05;46.58
61351;DHT22;47119;49.130;9.218;2023-02-26T16:37:10;8.02;46.40
61351;DHT22;47119;49.130;9.218;2023-02-26T16:39:54;7.90;46.34
61351;DHT22;47119;49.130;9.218;2023-02-26T16:42:36;7.97;46.42
61351;DHT22;47119;49.130;9.218;2023-02-26T16:45:19;8.00;46.53
61351;DHT22;47119;49.130;9.218;2023-02-26T16:47:55;8.03;46.92
61351;DHT22;47119;49.130;9.218;2023-02-26T16:50:26;8.13;46.58
61351;DHT22;47119;49.130;9.218;2023-02-26T16:52:59;8.09;47.05
61351;DHT22;47119;49.130;9.218;2023-02-26T16:55:35;8.14;47.31
61351;DHT22;47119;49.130;9.218;2023-02-26T16:58:10;8.10;47.06
61351;DHT22;47119;49.130;9.218;2023-02-26T17:00:43;8.07;47.13
61351;DHT22;47119;49.130;9.218;2023-02-26T17:03:16;8.13;47.19
61351;DHT22;47119;49.130;9.218;2023-02-26T17:05:52;8.20;47.33
61351;DHT22;47119;49.130;9.218;2023-02-26T17:08:26;7.97;46.46
61351;DHT22;47119;49.130;9.218;2023-02-26T17:11:01;7.83;46.47
61351;DHT22;47119;49.130;9.218;2023-02-26T17:13:31;7.92;46.68
61351;DHT22;47119;49.130;9.218;2023-02-26T17:16:03;7.89;46.51
61351;DHT22;47119;49.130;9.218;2023-02-26T17:18:33;7.92;47.01
61351;DHT22;47119;49.130;9.218;2023-02-26T17:21:01;8.06;47.16
61351;DHT22;47119;49.130;9.218;2023-02-26T17:23:35;8.05;46.71
61351;DHT22;47119;49.130;9.218;2023-02-26T17:26:04;7.86;45.92
61351;DHT22;47119;49.130;9.218;2023-02-26T17:28:36;7.88;45.85
61351;DHT22;47119;49.130;9.218;2023-02-26T17:31:07;7.99;45.74
61351;DHT22;47119;49.130;9.218;2023-02-26T17:33:39;7.82;45.64
61351;DHT22;47119;49.130;9.218;2023-02-26T17:36:12;7.99;45.84
61351;DHT22;47119;49.130;9.218;2023-02-26T17:38:40;8.12;45.80
61351;DHT22;47119;49.130;9.218;2023-02-26T17:41:14;8.14;45.91
61351;DHT22;47119;49.130;9.218;2023-02-26T17:43:45;7.85;45.15
61351;DHT22;47119;49.130;9.218;2023-02-26T17:46:12;7.93;45.58
61351;DHT22;47119;49.130;9.218;2023-02-26T17:48:45;7.83;45.47
61351;DHT22;47119;49.130;9.218;2023-02-26T17:51:14;7.95;45.77
61351;DHT22;47119;49.130;9.218;2023-02-26T17:53:46;7.89;45.08
61351;DHT22;47119;49.130;9.218;2023-02-26T17:56:20;7.88;45.54
61351;DHT22;47119;49.130;9.218;2023-02-26T17:58:49;7.75;45.25
61351;DHT22;47119;49.130;9.218;2023-02-26T18:01:20;7.75;45.14
61351;DHT22;47119;49.130;9.218;2023-02-26T18:03:54;7.89;45.35
61351;DHT22;47119;49.130;9.218;2023-02-26T18:06:22;7.95;44.98
61351;DHT22;47119;49.130;9.218;2023-02-26T18:08:52;7.89;45.21
61351;DHT22;47119;49.130;9.218;2023-02-26T18:11:23;7.83;45.70
61351;DHT22;47119;49.130;9.218;2023-02-26T18:13:56;7.83;45.51
61351;DHT22;47119;49.130;9.218;2023-02-26T18:16:28;7.74;45.43
61351;DHT22;47119;49.130;9.218;2023-02-26T18:18:59;7.72;45.29
61351;DHT22;47119;49.130;9.218;2023-02-26T18:21:31;7.75;45.33
61351;DHT22;47119;49.130;9.218;2023-02-26T18:23:59;7.90;45.55
61351;DHT22;47119;49.130;9.218;2023-02-26T18:26:28;7.90;45.39
61351;DHT22;47119;49.130;9.218;2023-02-26T18:28:57;8.00;45.08
61351;DHT22;47119;49.130;9.218;2023-02-26T18:31:25;7.90;45.28
61351;DHT22;47119;49.130;9.218;2023-02-26T18:34:00;7.88;44.64
61351;DHT22;47119;49.130;9.218;2023-02-26T18:36:29;7.69;44.58
61351;DHT22;47119;49.130;9.218;2023-02-26T18:39:04;7.65;44.62
61351;DHT22;47119;49.130;9.218;2023-02-26T18:41:35;7.69;44.55
61351;DHT22;47119;49.130;9.218;2023-02-26T18:44:03;7.79;45.09
61351;DHT22;47119;49.130;9.218;2023-02-26T18:46:35;7.85;44.62
61351;DHT22;47119;49.130;9.218;2023-02-26T18:49:06;7.86;44.55
61351;DHT22;47119;49.130;9.218;2023-02-26T18:51:33;7.93;44.77
61351;DHT22;47119;49.130;9.218;2023-02-26T18:54:03;7.89;44.94
61351;DHT22;47119;49.130;9.218;2023-02-26T18:56:32;7.76;44.32
61351;DHT22;47119;49.130;9.218;2023-02-26T18:59:00;7.58;44.36
61351;DHT22;47119;49.130;9.218;2023-02-26T19:01:27;7.69;45.04
61351;DHT22;47119;49.130;9.218;2023-02-26T19:03:57;7.81;44.94
61351;DHT22;47119;49.130;9.218;2023-02-26T19:06:26;7.78;45.19
61351;DHT22;47119;49.130;9.218;2023-02-26T19:08:55;7.76;44.99
61351;DHT22;47119;49.130;9.218;2023-02-26T19:11:27;7.78;45.41
61351;DHT22;47119;49.130;9.218;2023-02-26T19:13:54;7.83;45.62
61351;DHT22;47119;49.130;9.218;2023-02-26T19:16:24;7.72;45.69
61351;DHT22;47119;49.130;9.218;2023-02-26T19:18:52;7.71;45.32
61351;DHT22;47119;49.130;9.218;2023-02-26T19:21:19;7.78;45.44
61351;DHT22;47119;49.130;9.218;2023-02-26T19:23:48;7.83;45.97
61351;DHT22;47119;49.130;9.218;2023-02-26T19:26:17;7.72;45.77
61351;DHT22;47119;49.130;9.218;2023-02-26T19:28:48;7.83;45.82
61351;DHT22;47119;49.130;9.218;2023-02-26T19:31:18;7.86;46.27
61351;DHT22;47119;49.130;9.218;2023-02-26T19:33:47;7.75;45.83
61351;DHT22;47119;49.130;9.218;2023-02-26T19:36:16;7.75;45.88
61351;DHT22;47119;49.130;9.218;2023-02-26T19:38:47;7.71;45.51
61351;DHT22;47119;49.130;9.218;2023-02-26T19:41:16;7.75;45.86
61351;DHT22;47119;49.130;9.218;2023-02-26T19:43:44;7.78;46.02
61351;DHT22;47119;49.130;9.218;2023-02-26T19:46:14;7.93;46.37
61351;DHT22;47119;49.130;9.218;2023-02-26T19:48:43;7.85;46.20
61351;DHT22;47119;49.130;9.218;2023-02-26T19:51:29;7.83;46.12
61351;DHT22;47119;49.130;9.218;2023-02-26T19:54:13;7.88;46.37
61351;DHT22;47119;49.130;9.218;2023-02-26T19:56:42;7.89;45.97
61351;DHT22;47119;49.130;9.218;2023-02-26T19:59:10;7.72;45.69
61351;DHT22;47119;49.130;9.218;2023-02-26T20:01:38;7.64;45.79
61351;DHT22;47119;49.130;9.218;2023-02-26T20:04:06;7.64;45.93
61351;DHT22;47119;49.130;9.218;2023-02-26T20:06:33;7.64;45.99
61351;DHT22;47119;49.130;9.218;2023-02-26T20:09:01;7.59;45.96
61351;DHT22;47119;49.130;9.218;2023-02-26T20:11:33;7.68;46.01
61351;DHT22;47119;49.130;9.218;2023-02-26T20:14:00;7.54;45.83
61351;DHT22;47119;49.130;9.218;2023-02-26T20:16:29;7.45;46.29
61351;DHT22;47119;49.130;9.218;2023-02-26T20:19:07;7.44;46.29
61351;DHT22;47119;49.130;9.218;2023-02-26T20:21:34;7.61;46.31
61351;DHT22;47119;49.130;9.218;2023-02-26T20:24:02;7.72;46.13
61351;DHT22;47119;49.130;9.218;2023-02-26T20:26:29;7.57;46.62
61351;DHT22;47119;49.130;9.218;2023-02-26T20:28:58;7.66;46.16
61351;DHT22;47119;49.130;9.218;2023-02-26T20:31:28;7.75;46.43
61351;DHT22;47119;49.130;9.218;2023-02-26T20:34:00;7.62;46.71
61351;DHT22;47119;49.130;9.218;2023-02-26T20:36:27;7.58;46.64
61351;DHT22;47119;49.130;9.218;2023-02-26T20:38:54;7.64;46.33
61351;DHT22;47119;49.130;9.218;2023-02-26T20:41:21;7.64;46.17
61351;DHT22;47119;49.130;9.218;2023-02-26T20:43:48;7.72;46.28
61351;DHT22;47119;49.130;9.218;2023-02-26T20:46:17;7.79;47.02
61351;DHT22;47119;49.130;9.218;2023-02-26T20:48:44;7.48;46.64
61351;DHT22;47119;49.130;9.218;2023-02-26T20:51:11;7.54;47.19
61351;DHT22;47119;49.130;9.218;2023-02-26T20:53:40;7.69;46.45
61351;DHT22;47119;49.130;9.218;2023-02-26T20:56:09;7.52;46.44
61351;DHT22;47119;49.130;9.218;2023-02-26T20:58:36;7.32;46.11
61351;DHT22;47119;49.130;9.218;2023-02-26T21:01:06;7.52;46.45
61351;DHT22;47119;49.130;9.218;2023-02-26T21:03:54;7.68;46.54
61351;DHT22;47119;49.130;9.218;2023-02-26T21:06:48;7.54;46.86
61351;DHT22;47119;49.130;9.218;2023-02-26T21:09:15;7.74;46.76
61351;DHT22;47119;49.130;9.218;2023-02-26T21:11:42;7.76;46.78
61351;DHT22;47119;49.130;9.218;2023-02-26T21:14:09;7.54;46.53
61351;DHT22;47119;49.130;9.218;2023-02-26T21:16:38;7.54;46.74
61351;DHT22;47119;49.130;9.218;2023-02-26T21:19:09;7.54;46.84
61351;DHT22;47119;49.130;9.218;2023-02-26T21:21:39;7.43;47.35
61351;DHT22;47119;49.130;9.218;2023-02-26T21:24:09;7.38;46.99
61351;DHT22;47119;49.130;9.218;2023-02-26T21:26:39;7.51;47.45
61351;DHT22;47119;49.130;9.218;2023-02-26T21:29:10;7.54;47.07
61351;DHT22;47119;49.130;9.218;2023-02-26T21:31:40;7.40;46.89
61351;DHT22;47119;49.130;9.218;2023-02-26T21:34:09;7.28;47.75
61351;DHT22;47119;49.130;9.218;2023-02-26T21:36:42;7.24;47.17
61351;DHT22;47119;49.130;9.218;2023-02-26T21:39:09;7.32;47.57
61351;DHT22;47119;49.130;9.218;2023-02-26T21:42:10;7.58;47.34
61351;DHT22;47119;49.130;9.218;2023-02-26T21:44:39;7.35;47.08
61351;DHT22;47119;49.130;9.218;2023-02-26T21:47:06;7.44;46.98
61351;DHT22;47119;49.130;9.218;2023-02-26T21:49:37;7.24;47.44
61351;DHT22;47119;49.130;9.218;2023-02-26T21:52:06;7.31;47.28
61351;DHT22;47119;49.130;9.218;2023-02-26T21:54:33;7.50;47.49
61351;DHT22;47119;49.130;9.218;2023-02-26T21:57:03;7.40;48.28
61351;DHT22;47119;49.130;9.218;2023-02-26T21:59:33;7.31;47.65
61351;DHT22;47119;49.130;9.218;2023-02-26T22:02:00;7.38;48.47
61351;DHT22;47119;49.130;9.218;2023-02-26T22:04:33;7.34;47.93
61351;DHT22;47119;49.130;9.218;2023-02-26T22:07:01;7.41;48.05
61351;DHT22;47119;49.130;9.218;2023-02-26T22:09:30;7.43;47.97
61351;DHT22;47119;49.130;9.218;2023-02-26T22:11:57;7.55;47.88
61351;DHT22;47119;49.130;9.218;2023-02-26T22:14:24;7.52;48.22
61351;DHT22;47119;49.130;9.218;2023-02-26T22:16:51;7.58;47.99
61351;DHT22;47119;49.130;9.218;2023-02-26T22:19:18;7.59;48.04
61351;DHT22;47119;49.130;9.218;2023-02-26T22:21:50;7.35;48.17
61351;DHT22;47119;49.130;9.218;2023-02-26T22:24:23;7.35;48.37
61351;DHT22;47119;49.130;9.218;2023-02-26T22:26:53;7.57;47.94
61351;DHT22;47119;49.130;9.218;2023-02-26T22:29:20;7.27;48.42
61351;DHT22;47119;49.130;9.218;2023-02-26T22:31:52;7.24;48.92
61351;DHT22;47119;49.130;9.218;2023-02-26T22:34:24;7.34;48.67
61351;DHT22;47119;49.130;9.218;2023-02-26T22:37:02;7.40;48.83
61351;DHT22;47119;49.130;9.218;2023-02-26T22:39:30;7.51;49.28
61351;DHT22;47119;49.130;9.218;2023-02-26T22:41:58;7.58;49.29
61351;DHT22;47119;49.130;9.218;2023-02-26T22:44:28;7.37;49.12
61351;DHT22;47119;49.130;9.218;2023-02-26T22:46:55;7.34;49.80
61351;DHT22;47119;49.130;9.218;2023-02-26T22:49:23;7.34;49.10
61351;DHT22;47119;49.130;9.218;2023-02-26T22:51:50;7.43;49.37
61351;DHT22;47119;49.130;9.218;2023-02-26T22:54:18;7.44;49.45
61351;DHT22;47119;49.130;9.218;2023-02-26T22:56:45;7.61;49.06
61351;DHT22;47119;49.130;9.218;2023-02-26T22:59:12;7.64;49.65
61351;DHT22;47119;49.130;9.218;2023-02-26T23:01:40;7.55;49.90
61351;DHT22;47119;49.130;9.218;2023-02-26T23:04:07;7.44;49.97
61351;DHT22;47119;49.130;9.218;2023-02-26T23:06:36;7.50;49.76
61351;DHT22;47119;49.130;9.218;2023-02-26T23:09:03;7.57;49.92
61351;DHT22;47119;49.130;9.218;2023-02-26T23:11:35;7.71;50.43
61351;DHT22;47119;49.130;9.218;2023-02-26T23:14:02;7.58;50.34
61351;DHT22;47119;49.130;9.218;2023-02-26T23:16:29;7.66;50.51
61351;DHT22;47119;49.130;9.218;2023-02-26T23:18:58;7.72;50.22
61351;DHT22;47119;49.130;9.218;2023-02-26T23:21:29;7.52;49.94
61351;DHT22;47119;49.130;9.218;2023-02-26T23:23:56;7.48;50.82
61351;DHT22;47119;49.130;9.218;2023-02-26T23:26:24;7.59;50.64
61351;DHT22;47119;49.130;9.218;2023-02-26T23:28:55;7.45;50.82
61351;DHT22;47119;49.130;9.218;2023-02-26T23:31:22;7.43;51.24
61351;DHT22;47119;49.130;9.218;2023-02-26T23:33:53;7.43;51.22
61351;DHT22;47119;49.130;9.218;2023-02-26T23:36:26;7.47;51.03
61351;DHT22;47119;49.130;9.218;2023-02-26T23:38:53;7.37;51.41
61351;DHT22;47119;49.130;9.218;2023-02-26T23:41:20;7.34;51.43
61351;DHT22;47119;49.130;9.218;2023-02-26T23:43:47;7.58;51.49
61351;DHT22;47119;49.130;9.218;2023-02-26T23:46:16;7.40;51.10
61351;DHT22;47119;49.130;9.218;2023-02-26T23:48:43;7.55;51.11
61351;DHT22;47119;49.130;9.218;2023-02-26T23:51:10;7.31;51.24
61351;DHT22;47119;49.130;9.218;2023-02-26T23:53:37;7.47;51.77
61351;DHT22;47119;49.130;9.218;2023-02-26T23:56:05;7.40;50.91
61351;DHT22;47119;49.130;9.218;2023-02-26T23:58:35;7.57;51.24
